Mannington, West Virginia
Current Conditions -  °F | °C
As of 2:53 AM on Thursday 29 Jan 2015 (Local Time) from KCKB Reporting Station
Clear Clear  
Wind Chill: 12°   Ceiling: Unl
Heat Index: 19°   Visibility: 10mi
Dew Point: 15°   Wind: 5mph
Humidity: 85%   Direction: 270°W
Pressure: 30.2"   Gusts: NA
Location:  39.53°N, 80.34°W
Report Text: KCKB 290753Z 27004KT 10SM CLR M07/M09 A3020 RMK AO2 SLP238 T10721094
Loading
Personal Weather Stations






























Interactive Weather Map New forecast layout! Learn more

10-Day Weather Forecast

Advertisements
Track Severe Weather on mobile